Henniker, NH (03242)

3:14 PM EDT on August 28, 2015 (GMT -0400)
New England College | | Change Station
CLOSE
Current Station
Personal Weather Station
Location: Henniker, NH
Elevation: 469 ft
Nearby Weather Stations

Elev 469 ft 43.18 °N, 71.82 °W | Updated 4 minutes ago

Partly Cloudy
Partly Cloudy
76.0 °F
Feels Like 78 °F
N
2.0
Wind Variable Wind from NW
Gusts 2.0 mph

Today
High -- | Low -- °F
--% Chance of Precip.
Yesterday
High -- | Low -- °F
Precip. -- in
6:06 AM 7:29 PM
Waxing Gibbous, 99% visible
Pressure 30.13 in
Visibility 10.0 miles
Clouds Few 5000 ft
Few 6000 ft
Heat Index 78 °F
Dew Point 59 °F
Humidity 55%
Rainfall 0.00 in
Snow Depth Not available.
UV 2.7 out of 12
Pollen 7.80 out of 12
Air Quality Not available.
Flu Activity Not available.
METAR KCON 281851Z AUTO 29009KT 10SM FEW050 FEW060 26/11 A3012 RMK AO2 SLP201 T02610111
Pressure 30.13 in
Visibility 10.0 miles
Clouds Few 5000 ft
Few 6000 ft
Heat Index 78 °F
Dew Point 59 °F
Humidity 55%
Rainfall 0.00 in
Snow Depth Not available.
UV 2.7 out of 12
Pollen 7.80 out of 12
Air Quality Not available.
Flu Activity Not available.
METAR KCON 281851Z AUTO 29009KT 10SM FEW050 FEW060 26/11 A3012 RMK AO2 SLP201 T02610111

10-Day Weather Forecast

×

Almanac

Astronomy

Aug. 28, 2015 Rise Set
Actual Time
Civil Twilight
Nautical Twilight
Astronomical Twilight
Moon
Length of Visible Light
Length of Day
Tomorrow will be .
, % of the Moon is Illuminated

Today's Extremes

State Highs State Lows

Community

WunderPhotos

Upload Photos

1,850,460 photos uploaded!

WunderBlogs® & News

Nearby

Air Quality

  Air Quality AQ Index Pollutant
Not available.

Snow Depth

Station Depth Elevation

Earthquake Activity

City Distance Mag. Time & Date
Minimum magnitude displayed is 2.5.

Coastal Water Temperatures

Place Temperature

Stations

Nearby Weather Stations

Station Location Temp. Windchill Dew Point Humidity Wind Precip. Elev Updated Type